Time;durP1;ratioP1;P1;durP2;ratioP2;P2;SDS_P1;SDS_P2;PMS_P1;PMS_P2;Temp;Humidity;BMP_temperature;BMP_pressure;BME280_temperature;BME280_humidity;BME280_pressure;Samples;Min_cycle;Max_cycle;Signal;HPM_P1;HPM_P2
2021/04/25 00:02:26;;;;;;;21.05;12.05;;;;;;;6.34;65.03;99173.48;2224710;80;22256;-78
2021/04/25 00:05:28;;;;;;;19.90;11.05;;;;;;;6.35;64.96;99171.70;2224916;80;21283;-78
2021/04/25 00:08:31;;;;;;;21.20;12.37;;;;;;;6.29;64.94;99160.06;2224553;80;21199;-78
2021/04/25 00:11:33;;;;;;;20.43;11.95;;;;;;;6.25;64.96;99161.33;2224692;80;21259;-78
2021/04/25 00:14:35;;;;;;;27.62;13.98;;;;;;;6.20;64.87;99155.71;2224916;80;21581;-78
2021/04/25 00:17:36;;;;;;;23.75;13.38;;;;;;;6.17;64.89;99155.52;2224645;80;21168;-78
2021/04/25 00:20:38;;;;;;;22.00;12.25;;;;;;;6.16;65.05;99158.27;2224861;80;21498;-78
2021/04/25 00:23:40;;;;;;;22.05;11.97;;;;;;;6.11;64.98;99152.66;2224650;80;21754;-78
2021/04/25 00:26:43;;;;;;;23.35;12.68;;;;;;;6.04;65.22;99155.02;2224535;80;21334;-78
2021/04/25 00:29:44;;;;;;;25.80;14.28;;;;;;;6.03;65.44;99151.23;2224946;80;21314;-78
2021/04/25 00:32:46;;;;;;;23.50;13.35;;;;;;;6.00;65.60;99148.44;2224968;80;21314;-78
2021/04/25 00:35:48;;;;;;;23.15;13.15;;;;;;;5.99;65.65;99143.72;2225076;80;21141;-78
2021/04/25 00:38:49;;;;;;;19.07;12.30;;;;;;;6.00;65.87;99143.23;2225069;80;21152;-78
2021/04/25 00:41:51;;;;;;;21.37;13.38;;;;;;;6.03;65.93;99149.93;2223868;80;21153;-78
2021/04/25 00:44:54;;;;;;;20.60;11.85;;;;;;;6.03;66.05;99147.33;2201223;80;21251;-78
2021/04/25 00:47:56;;;;;;;35.23;18.85;;;;;;;5.99;66.18;99146.32;2200955;81;21730;-77
2021/04/25 00:50:57;;;;;;;34.67;17.00;;;;;;;5.97;66.36;99146.13;2200885;80;21263;-78
2021/04/25 00:53:59;;;;;;;19.90;12.28;;;;;;;5.94;66.35;99152.88;2200874;80;21129;-78
2021/04/25 00:57:01;;;;;;;17.70;10.82;;;;;;;5.89;66.38;99151.17;2201201;81;21339;-79
2021/04/25 01:00:03;;;;;;;20.52;11.25;;;;;;;5.85;66.28;99157.58;2201147;81;21318;-78
2021/04/25 01:03:05;;;;;;;19.05;11.10;;;;;;;5.76;66.37;99148.87;2201080;81;21149;-78
2021/04/25 01:06:07;;;;;;;21.97;12.07;;;;;;;5.70;66.22;99152.83;2201054;80;21136;-78
2021/04/25 01:09:09;;;;;;;18.73;11.30;;;;;;;5.68;66.52;99151.33;2201173;81;21572;-78
2021/04/25 01:12:11;;;;;;;20.02;11.48;;;;;;;5.65;66.19;99149.80;2200859;81;21298;-78
2021/04/25 01:15:13;;;;;;;31.40;14.98;;;;;;;5.66;66.12;99141.53;2201167;80;21600;-78
2021/04/25 01:18:15;;;;;;;24.15;13.95;;;;;;;5.72;66.17;99133.20;2200907;80;21302;-78
2021/04/25 01:21:17;;;;;;;26.93;13.35;;;;;;;5.78;66.18;99134.44;2201095;81;21310;-78
2021/04/25 01:24:19;;;;;;;29.63;15.32;;;;;;;5.81;66.35;99131.06;2201060;81;21286;-77
2021/04/25 01:27:21;;;;;;;32.20;15.95;;;;;;;5.84;65.91;99135.16;2201019;80;21574;-77
2021/04/25 01:30:23;;;;;;;23.67;14.43;;;;;;;5.86;65.96;99136.68;2201253;80;21719;-77
2021/04/25 01:33:25;;;;;;;28.75;14.50;;;;;;;5.87;65.91;99139.62;2201025;80;21730;-78
2021/04/25 01:36:26;;;;;;;23.12;13.35;;;;;;;5.87;65.97;99131.82;2201175;80;21331;-77
2021/04/25 01:39:29;;;;;;;23.02;12.70;;;;;;;5.84;65.86;99131.26;2200818;80;21185;-77
2021/04/25 01:42:31;;;;;;;20.92;11.03;;;;;;;5.83;65.97;99123.95;2200752;80;21326;-77
2021/04/25 01:45:34;;;;;;;25.27;12.90;;;;;;;5.83;65.83;99123.95;2200911;80;21718;-77
2021/04/25 01:48:35;;;;;;;20.02;12.28;;;;;;;5.82;65.79;99120.19;2201029;81;21271;-77
2021/04/25 01:51:37;;;;;;;22.62;13.98;;;;;;;5.81;65.83;99118.55;2200806;80;21566;-77
2021/04/25 01:54:39;;;;;;;32.00;15.48;;;;;;;5.81;65.89;99113.36;2201014;81;21184;-77
2021/04/25 01:57:40;;;;;;;33.88;17.55;;;;;;;5.81;65.96;99110.76;2200999;81;21188;-77
2021/04/25 02:00:43;;;;;;;32.63;17.75;;;;;;;5.82;65.95;99113.21;2200583;80;21152;-78
2021/04/25 02:03:45;;;;;;;32.65;18.37;;;;;;;5.83;66.00;99112.25;2201135;80;21140;-77
2021/04/25 02:06:46;;;;;;;28.95;16.75;;;;;;;5.86;66.02;99118.48;2200789;81;21188;-78
2021/04/25 02:09:48;;;;;;;37.35;18.27;;;;;;;5.87;66.09;99118.83;2201142;80;21263;-77
2021/04/25 02:12:50;;;;;;;35.15;18.70;;;;;;;5.84;66.06;99110.47;2200883;81;21274;-78
2021/04/25 02:15:51;;;;;;;33.45;19.45;;;;;;;5.84;65.96;99107.88;2200992;80;21738;-78
2021/04/25 02:18:53;;;;;;;34.98;18.52;;;;;;;5.84;65.99;99113.06;2201091;80;21322;-77
2021/04/25 02:21:55;;;;;;;26.15;16.93;;;;;;;5.82;66.04;99104.12;2200804;80;21161;-77
2021/04/25 02:24:56;;;;;;;25.45;12.88;;;;;;;5.79;65.96;99105.70;2200811;80;21132;-78
2021/04/25 02:27:58;;;;;;;25.57;13.43;;;;;;;5.76;65.98;99103.84;2201052;80;21299;-78
2021/04/25 02:31:00;;;;;;;30.15;15.20;;;;;;;5.71;66.23;99098.60;2200781;80;21259;-77
2021/04/25 02:34:02;;;;;;;31.05;15.85;;;;;;;5.68;66.22;99106.69;2200769;80;21192;-78
2021/04/25 02:37:04;;;;;;;30.40;16.75;;;;;;;5.65;66.53;99107.42;2200869;80;21710;-77
2021/04/25 02:40:05;;;;;;;26.55;13.83;;;;;;;5.60;66.46;99103.95;2201049;80;21275;-77
2021/04/25 02:43:07;;;;;;;24.87;14.68;;;;;;;5.57;66.74;99105.98;2200933;80;21322;-78
2021/04/25 02:46:09;;;;;;;28.38;15.72;;;;;;;5.51;66.75;99106.08;2201224;80;21184;-78
2021/04/25 02:49:11;;;;;;;27.07;14.93;;;;;;;5.51;66.66;99108.67;2200718;80;21132;-78
2021/04/25 02:52:13;;;;;;;27.77;15.48;;;;;;;5.53;66.74;99106.75;2200469;81;21172;-77
2021/04/25 02:55:14;;;;;;;24.63;13.20;;;;;;;5.54;66.92;99108.87;2200762;81;21333;-76
2021/04/25 02:58:17;;;;;;;21.85;13.93;;;;;;;5.49;66.59;99107.19;2200487;81;21612;-77
2021/04/25 03:01:19;;;;;;;24.67;14.13;;;;;;;5.43;66.68;99108.54;2200716;80;21615;-79
2021/04/25 03:04:20;;;;;;;25.43;13.30;;;;;;;5.41;66.51;99111.28;2201473;81;21605;-77
2021/04/25 03:07:22;;;;;;;25.52;14.40;;;;;;;5.40;66.60;99108.34;2200670;80;21668;-81
2021/04/25 03:10:24;;;;;;;24.57;15.30;;;;;;;5.36;66.45;99110.03;2200678;80;22186;-78
2021/04/25 03:13:26;;;;;;;28.47;14.58;;;;;;;5.33;66.49;99116.33;2200671;80;21600;-78
2021/04/25 03:16:27;;;;;;;19.30;12.43;;;;;;;5.29;66.63;99107.64;2200985;81;21278;-78
2021/04/25 03:19:29;;;;;;;20.68;12.18;;;;;;;5.28;66.42;99099.03;2200539;81;21136;-78
2021/04/25 03:22:31;;;;;;;25.17;14.10;;;;;;;5.28;66.24;99106.81;2200883;81;21310;-78
2021/04/25 03:25:32;;;;;;;29.10;15.05;;;;;;;5.26;66.37;99100.95;2200488;80;21183;-79
2021/04/25 03:28:34;;;;;;;24.40;13.80;;;;;;;5.28;66.47;99095.61;2200396;80;21168;-79
2021/04/25 03:31:36;;;;;;;22.27;13.48;;;;;;;5.25;66.42;99095.89;2200429;81;21141;-80
2021/04/25 03:34:38;;;;;;;26.77;14.98;;;;;;;5.22;66.53;99096.18;2200876;80;21564;-79
2021/04/25 03:37:39;;;;;;;29.65;14.55;;;;;;;5.20;66.64;99094.17;2200851;81;21568;-79
2021/04/25 03:40:41;;;;;;;25.77;14.85;;;;;;;5.18;66.70;99097.39;2200562;81;21137;-79
2021/04/25 03:43:43;;;;;;;31.23;15.88;;;;;;;5.17;66.88;99101.77;2200743;80;21298;-79
2021/04/25 03:46:44;;;;;;;35.80;19.15;;;;;;;5.18;66.68;99098.20;2200665;80;21159;-78
2021/04/25 03:49:46;;;;;;;131.82;58.17;;;;;;;5.22;67.07;99106.08;2201322;80;21569;-79
2021/04/25 03:52:48;;;;;;;143.07;58.33;;;;;;;5.24;67.24;99098.97;2200840;81;21723;-79
2021/04/25 03:55:49;;;;;;;116.73;41.10;;;;;;;5.24;67.46;99102.87;2200738;80;21133;-79
2021/04/25 03:58:51;;;;;;;100.70;34.60;;;;;;;5.26;67.67;99094.45;2201129;81;21632;-79
2021/04/25 04:01:53;;;;;;;68.80;24.75;;;;;;;5.31;67.76;99099.26;2201096;80;21298;-78
2021/04/25 04:04:55;;;;;;;76.82;28.05;;;;;;;5.34;67.96;99098.97;2201000;80;21633;-79
2021/04/25 04:07:56;;;;;;;50.00;20.00;;;;;;;5.38;67.95;99106.34;2201087;81;21302;-79
2021/04/25 04:10:58;;;;;;;38.73;17.52;;;;;;;5.39;68.18;99101.52;2201154;81;21314;-79
2021/04/25 04:14:00;;;;;;;41.10;18.75;;;;;;;5.37;68.23;99102.59;2201300;80;21263;-79
2021/04/25 04:17:01;;;;;;;46.15;23.65;;;;;;;5.30;68.18;99102.34;2201033;81;21163;-79
2021/04/25 04:20:03;;;;;;;39.20;20.90;;;;;;;5.31;68.42;99105.27;2201109;81;21144;-79
2021/04/25 04:23:05;;;;;;;30.95;17.15;;;;;;;5.32;68.58;99108.69;2200776;80;21326;-79
2021/04/25 04:26:07;;;;;;;30.95;15.83;;;;;;;5.32;68.54;99101.71;2200834;80;21155;-79
2021/04/25 04:29:09;;;;;;;32.55;17.48;;;;;;;5.41;68.56;99108.68;2201163;81;21739;-79
2021/04/25 04:32:10;;;;;;;27.37;15.50;;;;;;;5.49;68.48;99102.80;2200878;81;21164;-79
2021/04/25 04:35:12;;;;;;;29.87;15.50;;;;;;;5.56;68.41;99103.05;2201156;80;21303;-79
2021/04/25 04:38:14;;;;;;;27.77;15.48;;;;;;;5.59;68.33;99100.20;2201021;80;21310;-79
2021/04/25 04:41:16;;;;;;;27.32;15.50;;;;;;;5.66;68.34;99108.58;2201172;80;21727;-79
2021/04/25 04:44:17;;;;;;;30.75;18.27;;;;;;;5.69;68.32;99105.72;2200891;80;21282;-79
2021/04/25 04:47:19;;;;;;;26.55;14.87;;;;;;;5.70;68.36;99103.94;2200844;81;21180;-79
2021/04/25 04:50:21;;;;;;;33.73;17.35;;;;;;;5.79;68.38;99103.11;2200872;80;21273;-79
2021/04/25 04:53:22;;;;;;;29.92;16.10;;;;;;;5.82;68.22;99103.30;2201074;80;21322;-79
2021/04/25 04:56:24;;;;;;;28.80;16.12;;;;;;;5.84;68.29;99109.17;2201124;80;21350;-79
2021/04/25 04:59:25;;;;;;;30.57;15.80;;;;;;;5.88;68.36;99115.74;2201022;81;21267;-80
2021/04/25 05:02:27;;;;;;;28.85;15.72;;;;;;;5.93;68.26;99114.86;2201042;81;21128;-80
2021/04/25 05:05:29;;;;;;;30.08;16.00;;;;;;;6.06;68.06;99114.58;2201034;80;21560;-81
2021/04/25 05:08:31;;;;;;;24.07;14.47;;;;;;;6.19;68.05;99115.89;2201093;81;21327;-79
2021/04/25 05:11:33;;;;;;;27.58;14.60;;;;;;;6.31;67.79;99111.35;2201140;81;21330;-79
2021/04/25 05:14:35;;;;;;;27.65;14.70;;;;;;;6.43;67.26;99107.60;2201276;80;21334;-80
2021/04/25 05:17:36;;;;;;;20.37;14.38;;;;;;;6.61;67.14;99111.56;2200755;80;21330;-79
2021/04/25 05:20:38;;;;;;;27.98;14.87;;;;;;;6.71;66.67;99114.11;2200907;81;21356;-79
2021/04/25 05:23:40;;;;;;;23.50;14.05;;;;;;;6.79;66.29;99112.42;2200979;80;21346;-80
2021/04/25 05:26:42;;;;;;;27.02;16.12;;;;;;;6.90;65.85;99107.98;2201005;80;21318;-80
2021/04/25 05:29:44;;;;;;;24.52;14.23;;;;;;;6.99;65.92;99105.31;2200978;81;21120;-79
2021/04/25 05:32:45;;;;;;;24.50;14.30;;;;;;;7.05;65.40;99103.91;2201126;80;21295;-79
2021/04/25 05:35:47;;;;;;;23.87;13.62;;;;;;;7.12;65.49;99107.06;2200997;81;21337;-79
2021/04/25 05:38:49;;;;;;;22.27;13.65;;;;;;;7.18;65.16;99105.66;2200743;80;21168;-79
2021/04/25 05:41:51;;;;;;;24.92;13.85;;;;;;;7.19;64.92;99102.57;2200800;81;21175;-79
2021/04/25 05:44:54;;;;;;;22.50;12.82;;;;;;;7.23;64.87;99098.23;2216030;80;21767;-79
2021/04/25 05:47:56;;;;;;;18.65;12.10;;;;;;;7.32;64.72;99105.16;2209428;80;21150;-79
2021/04/25 05:50:57;;;;;;;21.05;13.93;;;;;;;7.42;64.41;99105.08;2191017;81;21322;-80
2021/04/25 05:54:00;;;;;;;20.82;13.48;;;;;;;7.48;63.97;99094.52;2192332;81;21284;-82
2021/04/25 05:57:01;;;;;;;23.15;13.38;;;;;;;7.62;64.28;99100.02;2192611;81;21292;-82
2021/04/25 06:00:07;;;;;;;23.85;13.98;;;;;;;7.76;63.46;99101.73;2192698;81;21669;-80
2021/04/25 06:03:08;;;;;;;18.42;11.60;;;;;;;7.89;63.19;99103.48;2192352;81;21157;-81
2021/04/25 06:06:10;;;;;;;16.95;11.20;;;;;;;8.00;61.64;99113.66;2192355;81;21277;-80
2021/04/25 06:09:12;;;;;;;22.70;12.55;;;;;;;8.04;61.47;99118.06;2192366;81;21280;-81
2021/04/25 06:12:15;;;;;;;20.30;10.88;;;;;;;8.01;59.52;99120.50;2192318;81;21173;-78
2021/04/25 06:15:16;;;;;;;20.55;12.75;;;;;;;8.07;60.54;99112.56;2192177;81;21164;-80
2021/04/25 06:18:19;;;;;;;30.68;14.20;;;;;;;8.13;60.59;99115.84;2191966;81;21291;-79
2021/04/25 06:21:21;;;;;;;17.57;11.38;;;;;;;8.18;58.68;99114.41;2192265;81;21316;-80
2021/04/25 06:24:23;;;;;;;14.87;11.00;;;;;;;8.24;57.89;99117.72;2192299;81;21305;-79
2021/04/25 06:27:26;;;;;;;23.57;13.65;;;;;;;8.33;57.42;99115.97;2192339;81;21290;-81
2021/04/25 06:30:28;;;;;;;17.62;11.25;;;;;;;8.36;56.21;99122.21;2192533;81;21764;-79
2021/04/25 06:33:30;;;;;;;16.60;9.90;;;;;;;8.40;55.39;99122.70;2192244;81;21842;-80
2021/04/25 06:36:32;;;;;;;15.00;9.20;;;;;;;8.41;56.96;99119.12;2192609;81;21318;-82
2021/04/25 06:39:34;;;;;;;15.55;10.63;;;;;;;8.46;55.23;99126.01;2192632;81;21173;-81
2021/04/25 06:42:38;;;;;;;14.80;9.68;;;;;;;8.58;56.33;99121.32;2192180;81;21315;-78
2021/04/25 06:45:40;;;;;;;13.40;8.45;;;;;;;8.67;55.14;99112.06;2189691;81;21182;-81
2021/04/25 06:48:42;;;;;;;16.02;9.98;;;;;;;8.87;55.26;99103.50;2188956;81;21344;-79
2021/04/25 06:51:44;;;;;;;16.70;9.95;;;;;;;9.07;55.33;99098.81;2188989;81;21336;-84
2021/04/25 06:54:46;;;;;;;16.23;8.68;;;;;;;9.35;54.26;99108.48;2189069;81;21684;-79
2021/04/25 06:57:48;;;;;;;15.05;8.80;;;;;;;9.53;51.76;99101.80;2188915;81;21169;-78
2021/04/25 07:00:50;;;;;;;14.53;9.58;;;;;;;9.57;52.54;99107.02;2188893;81;21324;-78
2021/04/25 07:03:52;;;;;;;14.55;8.58;;;;;;;9.73;52.83;99109.63;2189153;81;21153;-79
2021/04/25 07:06:54;;;;;;;20.32;10.85;;;;;;;9.86;50.49;99108.63;2188909;81;21260;-79
2021/04/25 07:09:57;;;;;;;15.60;8.30;;;;;;;10.01;51.25;99109.28;2189020;81;21307;-79
2021/04/25 07:12:59;;;;;;;14.33;7.97;;;;;;;10.19;50.50;99108.09;2188939;81;21311;-78
2021/04/25 07:16:00;;;;;;;14.30;8.75;;;;;;;10.29;49.17;99101.39;2189611;81;21180;-79
2021/04/25 07:19:02;;;;;;;11.93;6.75;;;;;;;10.30;50.51;99101.71;2189547;81;21172;-77
2021/04/25 07:22:04;;;;;;;10.32;7.45;;;;;;;10.49;47.64;99101.32;2188909;81;21153;-79
2021/04/25 07:25:05;;;;;;;10.50;7.42;;;;;;;10.79;48.22;99100.23;2189231;81;21141;-79
2021/04/25 07:28:07;;;;;;;10.85;7.80;;;;;;;11.02;47.89;99102.38;2189119;81;21699;-79
2021/04/25 07:31:10;;;;;;;9.45;6.90;;;;;;;11.19;47.57;99099.67;2188889;81;21114;-79
2021/04/25 07:34:12;;;;;;;11.55;6.15;;;;;;;11.08;45.82;99094.34;2189244;81;21319;-79
2021/04/25 07:37:14;;;;;;;8.53;5.72;;;;;;;11.16;44.43;99095.59;2189113;81;21696;-79
2021/04/25 07:40:17;;;;;;;10.95;6.25;;;;;;;11.09;45.37;99094.66;2188450;81;21157;-79
2021/04/25 07:43:19;;;;;;;9.40;5.05;;;;;;;11.20;45.53;99094.74;2188647;81;21180;-79
2021/04/25 07:46:20;;;;;;;9.50;4.50;;;;;;;11.25;42.70;99098.98;2186138;81;21307;-79
2021/04/25 07:49:22;;;;;;;7.95;4.58;;;;;;;11.18;41.99;99095.42;2185905;81;21141;-79
2021/04/25 07:52:24;;;;;;;8.23;4.40;;;;;;;11.18;42.93;99094.92;2185976;81;21628;-79
2021/04/25 07:55:26;;;;;;;6.45;4.28;;;;;;;11.27;42.39;99097.00;2186084;81;21170;-78
2021/04/25 07:58:29;;;;;;;4.87;3.62;;;;;;;11.33;41.80;99098.90;2185869;81;21185;-79
2021/04/25 08:01:30;;;;;;;7.12;4.60;;;;;;;11.33;40.02;99104.95;2186107;81;21173;-79
2021/04/25 08:04:34;;;;;;;5.40;4.67;;;;;;;11.21;41.51;99095.88;2186123;81;21154;-79
2021/04/25 08:07:36;;;;;;;6.53;3.72;;;;;;;11.18;41.17;99093.61;2186089;81;21106;-79
2021/04/25 08:10:38;;;;;;;5.67;3.62;;;;;;;11.01;39.94;99098.13;2186112;81;21577;-79
2021/04/25 08:13:39;;;;;;;4.53;3.02;;;;;;;10.92;40.30;99099.17;2186166;81;21172;-79
2021/04/25 08:16:41;;;;;;;4.80;3.40;;;;;;;10.85;39.46;99101.33;2185862;81;21287;-78
2021/04/25 08:19:44;;;;;;;6.08;3.55;;;;;;;10.80;38.32;99102.67;2186068;81;21157;-78
2021/04/25 08:22:46;;;;;;;6.83;3.92;;;;;;;10.85;39.95;99089.55;2185963;81;21102;-78
2021/04/25 08:25:48;;;;;;;7.15;4.78;;;;;;;11.05;39.82;99082.38;2185855;81;21114;-79
2021/04/25 08:28:50;;;;;;;7.78;4.28;;;;;;;11.25;39.63;99091.12;2186199;81;21109;-79
2021/04/25 08:31:52;;;;;;;7.92;4.20;;;;;;;11.37;38.78;99085.28;2185861;81;21276;-83
2021/04/25 08:34:54;;;;;;;6.30;4.30;;;;;;;11.40;39.55;99085.42;2186293;81;21280;-81
2021/04/25 08:37:56;;;;;;;5.28;3.80;;;;;;;11.46;38.35;99082.11;2185963;81;21165;-84
2021/04/25 08:40:58;;;;;;;5.72;3.40;;;;;;;11.58;39.03;99082.49;2185850;81;21197;-77
2021/04/25 08:44:00;;;;;;;6.92;4.12;;;;;;;11.63;37.18;99073.61;2185958;81;21141;-79
2021/04/25 08:47:04;;;;;;;7.00;4.08;;;;;;;11.52;36.66;99091.90;2185676;81;21146;-81
2021/04/25 08:50:05;;;;;;;5.47;3.70;;;;;;;11.39;38.12;99079.86;2186306;81;21716;-78
2021/04/25 08:53:07;;;;;;;4.70;3.87;;;;;;;11.33;37.84;99078.74;2186171;81;21150;-79
2021/04/25 08:56:10;;;;;;;8.48;4.05;;;;;;;11.29;37.58;99076.16;2185972;81;21135;-79
2021/04/25 08:59:12;;;;;;;7.20;3.72;;;;;;;11.27;37.40;99076.02;2186133;81;21133;-78
2021/04/25 09:02:14;;;;;;;4.37;3.10;;;;;;;11.28;37.23;99067.98;2186580;81;21146;-80
2021/04/25 09:05:16;;;;;;;4.60;3.30;;;;;;;11.30;35.80;99068.61;2186255;81;21257;-79
2021/04/25 09:08:21;;;;;;;5.60;4.50;;;;;;;11.40;37.43;99068.38;2186353;81;21200;-79
2021/04/25 09:11:23;;;;;;;6.35;3.95;;;;;;;11.54;37.65;99064.19;2186122;81;21601;-80
2021/04/25 09:14:25;;;;;;;10.38;4.70;;;;;;;11.40;35.70;99074.44;2186004;81;21129;-79
2021/04/25 09:17:28;;;;;;;6.70;4.97;;;;;;;11.13;37.46;99071.52;2186273;81;21335;-80
2021/04/25 09:20:30;;;;;;;5.70;4.00;;;;;;;10.99;37.41;99064.74;2186087;81;21154;-80
2021/04/25 09:23:32;;;;;;;6.47;3.25;;;;;;;11.05;37.68;99061.41;2186376;81;21295;-79
2021/04/25 09:26:34;;;;;;;5.30;2.92;;;;;;;11.04;37.23;99068.14;2185957;81;21141;-86
2021/04/25 09:29:36;;;;;;;5.85;3.42;;;;;;;10.96;36.98;99072.94;2186252;81;21134;-80
2021/04/25 09:32:38;;;;;;;3.62;2.67;;;;;;;10.82;37.03;99065.33;2186020;81;21141;-81
2021/04/25 09:35:40;;;;;;;6.10;4.17;;;;;;;10.71;35.68;99063.11;2186833;81;21680;-81
2021/04/25 09:38:44;;;;;;;5.28;2.90;;;;;;;10.58;36.18;99066.75;2185944;81;21149;-82
2021/04/25 09:41:48;;;;;;;5.33;2.40;;;;;;;10.51;35.46;99071.03;2186324;81;21146;-83
2021/04/25 09:44:51;;;;;;;5.95;3.72;;;;;;;10.62;35.60;99070.69;2186208;81;21152;-82
2021/04/25 09:47:52;;;;;;;5.55;3.58;;;;;;;10.74;36.39;99069.80;2185971;81;21149;-79
2021/04/25 09:50:54;;;;;;;6.95;3.83;;;;;;;10.92;36.08;99066.42;2186175;81;21564;-79
2021/04/25 09:53:56;;;;;;;8.40;5.15;;;;;;;10.94;34.64;99066.24;2185951;81;21144;-83
2021/04/25 09:56:58;;;;;;;8.93;6.03;;;;;;;10.85;36.50;99062.04;2186236;81;21149;-79
2021/04/25 10:00:00;;;;;;;7.80;4.12;;;;;;;10.86;37.21;99064.48;2186117;81;21158;-82
2021/04/25 10:03:07;;;;;;;4.20;3.35;;;;;;;10.94;36.54;99064.44;2185994;81;21125;-80
2021/04/25 10:06:08;;;;;;;7.83;3.60;;;;;;;11.07;39.06;99062.08;2185691;81;21596;-80
2021/04/25 10:09:10;;;;;;;4.97;3.33;;;;;;;11.33;40.08;99056.95;2185663;81;21156;-80
2021/04/25 10:12:12;;;;;;;5.70;3.30;;;;;;;11.49;36.27;99058.14;2186081;81;21161;-81
2021/04/25 10:15:14;;;;;;;3.65;3.25;;;;;;;11.46;35.81;99054.57;2186026;81;22187;-82
2021/04/25 10:18:16;;;;;;;5.78;3.35;;;;;;;11.44;36.60;99050.50;2186168;81;21130;-82
2021/04/25 10:21:18;;;;;;;5.87;2.98;;;;;;;11.58;36.33;99054.95;2186130;81;21114;-81
2021/04/25 10:24:20;;;;;;;5.95;3.42;;;;;;;11.48;34.28;99052.58;2185925;81;21134;-81
2021/04/25 10:27:23;;;;;;;18.77;4.50;;;;;;;11.25;34.12;99057.05;2186072;81;21173;-82
2021/04/25 10:30:25;;;;;;;4.67;3.27;;;;;;;11.07;34.58;99048.16;2186155;81;21173;-82
2021/04/25 10:33:27;;;;;;;3.72;3.20;;;;;;;11.05;36.76;99048.80;2185945;81;21189;-81
2021/04/25 10:36:29;;;;;;;4.53;3.72;;;;;;;11.06;35.43;99051.28;2186011;81;21629;-81
2021/04/25 10:39:31;;;;;;;6.35;3.65;;;;;;;11.06;37.11;99053.90;2186143;81;21169;-80
2021/04/25 10:42:37;;;;;;;5.40;3.27;;;;;;;11.17;36.60;99045.30;2186224;81;21177;-80
2021/04/25 10:45:38;;;;;;;4.62;3.83;;;;;;;11.23;37.34;99045.89;2185970;81;21141;-79
2021/04/25 10:48:40;;;;;;;5.72;4.15;;;;;;;11.29;36.40;99047.33;2186013;81;21133;-83
2021/04/25 10:51:42;;;;;;;4.03;3.65;;;;;;;11.48;34.96;99051.77;2185896;81;21169;-83
2021/04/25 10:54:44;;;;;;;5.03;3.50;;;;;;;11.37;35.08;99043.83;2185849;81;21130;-79
2021/04/25 10:57:46;;;;;;;3.67;3.08;;;;;;;11.31;35.23;99057.63;2185869;81;21141;-79
2021/04/25 11:00:49;;;;;;;5.35;3.08;;;;;;;11.36;33.65;99054.00;2186516;81;21267;-79
2021/04/25 11:03:51;;;;;;;4.47;2.77;;;;;;;11.31;36.81;99059.76;2186127;81;21169;-79
2021/04/25 11:06:53;;;;;;;6.15;3.30;;;;;;;11.39;34.46;99060.19;2185848;81;21185;-81
2021/04/25 11:09:55;;;;;;;4.08;3.20;;;;;;;11.37;33.45;99059.56;2185802;81;21149;-82
2021/04/25 11:12:58;;;;;;;7.62;3.12;;;;;;;11.43;35.16;99064.58;2185786;81;21149;-81
2021/04/25 11:16:01;;;;;;;4.10;2.92;;;;;;;11.59;34.71;99065.77;2186103;81;22134;-81
2021/04/25 11:19:03;;;;;;;3.10;2.47;;;;;;;11.65;33.47;99061.94;2185832;81;21189;-81
2021/04/25 11:22:05;;;;;;;6.33;3.17;;;;;;;11.73;36.85;99067.61;2185867;81;21633;-83
2021/04/25 11:25:09;;;;;;;4.12;3.20;;;;;;;11.84;33.94;99062.45;2185737;81;21198;-83
2021/04/25 11:28:11;;;;;;;4.78;2.87;;;;;;;11.88;34.80;99067.66;2186094;81;21165;-81
2021/04/25 11:31:13;;;;;;;5.10;2.90;;;;;;;11.94;32.64;99071.69;2186060;81;21169;-81
2021/04/25 11:34:19;;;;;;;5.17;2.55;;;;;;;11.83;34.28;99064.77;2185940;81;21589;-81
2021/04/25 11:37:21;;;;;;;4.33;3.12;;;;;;;11.85;32.41;99067.52;2185955;81;21159;-79
2021/04/25 11:40:24;;;;;;;2.87;2.67;;;;;;;11.79;34.66;99051.64;2186061;81;21162;-80
2021/04/25 11:43:26;;;;;;;2.85;2.30;;;;;;;11.79;32.07;99054.27;2186055;81;21169;-81
2021/04/25 11:46:28;;;;;;;6.00;3.08;;;;;;;11.61;31.30;99068.55;2180600;81;21284;-80
2021/04/25 11:49:30;;;;;;;5.70;2.83;;;;;;;11.46;34.54;99063.75;2175353;82;21145;-82
2021/04/25 11:52:34;;;;;;;4.50;2.62;;;;;;;11.38;32.91;99069.05;2175268;81;21162;-81
2021/04/25 11:55:36;;;;;;;5.00;3.47;;;;;;;11.10;33.22;99065.65;2175269;81;21142;-81
2021/04/25 11:58:38;;;;;;;4.87;2.52;;;;;;;10.95;32.32;99070.48;2175328;81;21133;-80
2021/04/25 12:01:40;;;;;;;4.55;2.42;;;;;;;10.86;30.84;99063.67;2175458;82;21311;-82
2021/04/25 12:04:42;;;;;;;2.37;2.15;;;;;;;10.59;31.56;99071.50;2175215;81;21610;-83
2021/04/25 12:07:44;;;;;;;2.90;2.00;;;;;;;10.49;31.77;99071.70;2175463;81;21287;-82
2021/04/25 12:10:47;;;;;;;4.00;2.42;;;;;;;10.40;31.37;99074.84;2175471;81;21146;-81
2021/04/25 12:13:50;;;;;;;2.58;2.08;;;;;;;10.44;31.98;99068.30;2175362;82;21145;-80
2021/04/25 12:16:52;;;;;;;3.85;2.85;;;;;;;10.34;30.95;99068.19;2175436;82;21130;-82
2021/04/25 12:19:54;;;;;;;6.08;3.55;;;;;;;10.25;32.08;99072.63;2175391;81;22176;-81
2021/04/25 12:22:56;;;;;;;4.95;3.30;;;;;;;10.35;32.63;99071.13;2175368;81;21280;-82
2021/04/25 12:25:58;;;;;;;4.22;2.87;;;;;;;10.50;33.40;99073.33;2175611;81;21307;-81
2021/04/25 12:29:00;;;;;;;3.77;3.20;;;;;;;10.59;32.56;99080.16;2175359;81;21150;-80
2021/04/25 12:32:02;;;;;;;5.67;3.80;;;;;;;10.65;33.07;99080.80;2175236;82;21181;-79
2021/04/25 12:35:05;;;;;;;5.90;2.87;;;;;;;10.69;32.22;99082.08;2175583;82;21174;-80
2021/04/25 12:38:07;;;;;;;3.42;2.35;;;;;;;10.57;31.42;99084.77;2175552;81;21169;-79
2021/04/25 12:41:09;;;;;;;6.00;3.80;;;;;;;10.60;32.43;99089.66;2175467;82;21605;-80
2021/04/25 12:44:11;;;;;;;4.22;3.05;;;;;;;10.41;31.40;99086.95;2175534;81;21685;-81
2021/04/25 12:47:13;;;;;;;4.30;2.47;;;;;;;10.23;32.19;99078.00;2183000;81;21609;-80
2021/04/25 12:50:15;;;;;;;6.33;3.33;;;;;;;10.08;32.68;99082.28;2185996;81;21193;-81
2021/04/25 12:53:18;;;;;;;4.62;2.58;;;;;;;9.97;32.76;99082.16;2186238;81;21121;-81
2021/04/25 12:56:20;;;;;;;3.47;2.85;;;;;;;9.91;34.96;99082.80;2186113;81;21633;-80
2021/04/25 12:59:23;;;;;;;6.20;3.25;;;;;;;10.01;31.91;99076.58;2186190;81;21182;-80
2021/04/25 13:02:25;;;;;;;2.65;2.00;;;;;;;10.05;31.47;99079.17;2186120;81;21156;-80
2021/04/25 13:05:27;;;;;;;3.10;1.47;;;;;;;10.03;31.61;99069.38;2186116;81;21164;-81
2021/04/25 13:08:29;;;;;;;4.53;2.80;;;;;;;9.95;31.77;99069.70;2185959;81;21598;-81
2021/04/25 13:11:31;;;;;;;4.55;2.47;;;;;;;9.95;31.77;99063.66;2186096;81;21152;-81
2021/04/25 13:14:33;;;;;;;2.83;2.52;;;;;;;10.11;32.13;99059.70;2186251;81;21177;-80
2021/04/25 13:17:35;;;;;;;2.47;1.90;;;;;;;10.32;31.65;99063.09;2185932;81;21189;-81
2021/04/25 13:20:37;;;;;;;5.37;3.27;;;;;;;10.31;30.29;99067.19;2186278;81;21185;-82
2021/04/25 13:23:40;;;;;;;6.17;2.52;;;;;;;10.33;30.67;99066.52;2185988;81;21122;-81
2021/04/25 13:26:43;;;;;;;3.70;2.05;;;;;;;10.47;30.64;99057.48;2185961;81;21168;-81
2021/04/25 13:29:45;;;;;;;3.27;2.00;;;;;;;10.65;29.84;99055.92;2186312;81;21177;-80
2021/04/25 13:32:47;;;;;;;4.47;2.85;;;;;;;10.66;29.59;99052.31;2186279;81;21173;-81
2021/04/25 13:35:50;;;;;;;2.72;2.45;;;;;;;10.61;29.02;99053.34;2185984;81;21141;-82
2021/04/25 13:38:52;;;;;;;2.20;1.90;;;;;;;10.54;29.04;99053.20;2186289;81;21330;-82
2021/04/25 13:41:54;;;;;;;5.87;2.55;;;;;;;10.70;30.02;99055.42;2186007;81;21173;-81
2021/04/25 13:44:56;;;;;;;1.52;1.30;;;;;;;10.71;30.10;99042.16;2185994;81;21098;-81
2021/04/25 13:47:58;;;;;;;4.72;2.42;;;;;;;10.74;29.82;99046.22;2176825;81;21157;-82
2021/04/25 13:51:00;;;;;;;2.15;1.50;;;;;;;10.64;28.05;99042.52;2175719;82;21287;-82
2021/04/25 13:54:02;;;;;;;6.20;3.37;;;;;;;10.56;29.22;99050.91;2175396;81;21140;-82
2021/04/25 13:57:03;;;;;;;2.00;1.60;;;;;;;10.44;27.83;99056.52;2175337;82;21102;-81
2021/04/25 14:00:05;;;;;;;2.20;1.65;;;;;;;10.28;27.50;99047.91;2175630;81;21146;-81
2021/04/25 14:03:08;;;;;;;1.67;1.15;;;;;;;10.30;27.54;99044.62;2175402;82;21578;-81
2021/04/25 14:06:11;;;;;;;1.35;1.25;;;;;;;10.20;26.99;99049.53;2175543;82;21157;-82
2021/04/25 14:09:13;;;;;;;4.80;2.87;;;;;;;10.02;26.42;99037.16;2175559;81;21601;-81
2021/04/25 14:12:15;;;;;;;3.00;1.20;;;;;;;9.96;27.09;99039.13;2175565;82;21629;-81